Time;durP1;ratioP1;P1;durP2;ratioP2;P2;SDS_P1;SDS_P2;PMS_P1;PMS_P2;Temp;Humidity;BMP_temperature;BMP_pressure;BME280_temperature;BME280_humidity;BME280_pressure;Samples;Min_cycle;Max_cycle;Signal;HPM_P1;HPM_P2
2024/03/30 00:02:11;;;;;;;;;;;8.80;89.40;;;;;;5105431;27;20328;-60
2024/03/30 00:04:42;;;;;;;;;;;8.80;89.60;;;;;;5092496;28;19927;-60
2024/03/30 00:07:15;;;;;;;;;;;8.80;89.70;;;;;;5092373;28;19963;-59
2024/03/30 00:09:48;;;;;;;;;;;8.80;89.60;;;;;;5095694;28;19927;-59
2024/03/30 00:12:22;;;;;;;;;;;8.80;89.70;;;;;;5094448;28;19932;-59
2024/03/30 00:14:54;;;;;;;;;;;8.90;89.70;;;;;;5094810;28;20271;-59
2024/03/30 00:17:21;;;;;;;;;;;8.80;89.70;;;;;;5085916;28;19992;-60
2024/03/30 00:19:53;;;;;;;;;;;8.90;89.70;;;;;;5093665;28;19970;-59
2024/03/30 00:22:26;;;;;;;;;;;8.90;89.70;;;;;;5083263;28;19928;-61
2024/03/30 00:24:58;;;;;;;;;;;8.90;89.70;;;;;;5092417;28;20022;-60
2024/03/30 00:27:33;;;;;;;;;;;8.90;89.80;;;;;;5095078;28;20049;-60
2024/03/30 00:30:06;;;;;;;;;;;8.90;89.80;;;;;;5096609;28;19928;-59
2024/03/30 00:32:33;;;;;;;;;;;8.90;89.80;;;;;;5092243;28;19932;-59
2024/03/30 00:35:06;;;;;;;;;;;8.80;89.80;;;;;;5095019;28;19992;-59
2024/03/30 00:37:38;;;;;;;;;;;8.70;89.90;;;;;;5092563;28;19976;-57
2024/03/30 00:40:10;;;;;;;;;;;8.70;89.90;;;;;;5098268;28;20003;-58
2024/03/30 00:42:46;;;;;;;;;;;8.70;89.70;;;;;;5090304;28;20014;-59
2024/03/30 00:45:18;;;;;;;;;;;8.70;89.70;;;;;;5093239;28;19931;-71
2024/03/30 00:47:51;;;;;;;;;;;8.70;89.70;;;;;;5096410;28;19938;-70
2024/03/30 00:50:23;;;;;;;;;;;8.70;89.60;;;;;;5097021;28;19927;-71
2024/03/30 00:52:56;;;;;;;;;;;8.70;89.70;;;;;;5087449;28;19993;-71
2024/03/30 00:55:29;;;;;;;;;;;8.70;89.60;;;;;;5091189;28;19953;-70
2024/03/30 00:58:03;;;;;;;;;;;8.70;89.60;;;;;;5099445;28;19985;-68
2024/03/30 01:00:36;;;;;;;;;;;8.70;89.70;;;;;;5098558;28;19927;-71
2024/03/30 01:03:09;;;;;;;;;;;8.60;89.80;;;;;;5099155;28;19924;-70
2024/03/30 01:05:42;;;;;;;;;;;8.70;89.70;;;;;;5097716;28;19967;-70
2024/03/30 01:08:21;;;;;;;;;;;8.60;89.60;;;;;;5099278;28;19993;-69
2024/03/30 01:10:57;;;;;;;;;;;8.70;89.60;;;;;;5100261;28;19971;-70
2024/03/30 01:13:32;;;;;;;;;;;8.60;89.60;;;;;;5095772;28;20317;-69
2024/03/30 01:16:08;;;;;;;;;;;8.70;89.70;;;;;;5098146;28;19924;-71
2024/03/30 01:18:42;;;;;;;;;;;8.70;89.70;;;;;;5096790;28;20004;-70
2024/03/30 01:21:14;;;;;;;;;;;8.70;89.70;;;;;;5097839;28;19954;-71
2024/03/30 01:23:48;;;;;;;;;;;8.70;89.70;;;;;;5098137;28;19964;-71
2024/03/30 01:26:15;;;;;;;;;;;8.70;89.80;;;;;;5097693;28;19924;-72
2024/03/30 01:28:53;;;;;;;;;;;8.70;89.80;;;;;;5096929;28;19924;-72
2024/03/30 01:31:26;;;;;;;;;;;8.70;89.80;;;;;;5092109;28;20018;-69
2024/03/30 01:33:59;;;;;;;;;;;8.70;89.90;;;;;;5098567;28;20386;-70
2024/03/30 01:36:31;;;;;;;;;;;8.70;89.90;;;;;;5092023;28;22700;-71
2024/03/30 01:39:04;;;;;;;;;;;8.70;89.90;;;;;;5087347;28;19928;-71
2024/03/30 01:41:37;;;;;;;;;;;8.70;89.80;;;;;;5096553;28;19928;-71
2024/03/30 01:44:11;;;;;;;;;;;8.70;89.80;;;;;;5097910;28;20566;-72
2024/03/30 01:46:44;;;;;;;;;;;8.70;89.90;;;;;;5093966;28;20022;-71
2024/03/30 01:49:17;;;;;;;;;;;8.70;90.00;;;;;;5096629;28;19928;-71
2024/03/30 01:51:50;;;;;;;;;;;8.60;90.00;;;;;;5087588;28;19939;-72
2024/03/30 01:54:23;;;;;;;;;;;8.60;90.00;;;;;;5095282;28;19928;-72
2024/03/30 01:56:56;;;;;;;;;;;8.60;90.00;;;;;;5092966;28;19928;-71
2024/03/30 01:59:30;;;;;;;;;;;8.60;90.00;;;;;;5095287;28;19959;-72
2024/03/30 02:02:03;;;;;;;;;;;8.50;90.10;;;;;;5091140;28;19928;-71
2024/03/30 02:04:36;;;;;;;;;;;8.50;90.20;;;;;;5097191;28;19939;-72
2024/03/30 02:07:08;;;;;;;;;;;8.50;90.20;;;;;;5095715;28;20482;-71
2024/03/30 02:09:42;;;;;;;;;;;8.50;90.20;;;;;;5092481;28;20026;-72
2024/03/30 02:12:14;;;;;;;;;;;8.40;90.00;;;;;;5094318;28;19924;-70
2024/03/30 02:14:49;;;;;;;;;;;8.40;90.20;;;;;;5092475;28;19961;-70
2024/03/30 02:17:22;;;;;;;;;;;8.40;90.10;;;;;;5085285;28;20344;-71
2024/03/30 02:19:57;;;;;;;;;;;8.40;89.90;;;;;;5093811;28;19924;-71
2024/03/30 02:22:29;;;;;;;;;;;8.40;90.00;;;;;;5087564;28;19928;-72
2024/03/30 02:25:04;;;;;;;;;;;8.40;90.10;;;;;;5091663;28;19955;-72
2024/03/30 02:27:39;;;;;;;;;;;8.50;90.10;;;;;;5109942;27;19924;-72
2024/03/30 02:30:16;;;;;;;;;;;8.40;90.00;;;;;;5095426;28;19935;-72
2024/03/30 02:32:49;;;;;;;;;;;8.50;89.90;;;;;;5096714;28;19924;-73
2024/03/30 02:35:23;;;;;;;;;;;8.50;89.90;;;;;;5094472;28;19969;-73
2024/03/30 02:37:55;;;;;;;;;;;8.40;90.00;;;;;;5089971;28;19975;-72
2024/03/30 02:40:30;;;;;;;;;;;8.40;89.90;;;;;;5095960;28;19923;-73
2024/03/30 02:43:03;;;;;;;;;;;8.50;89.90;;;;;;5094434;28;20226;-72
2024/03/30 02:45:36;;;;;;;;;;;8.50;89.90;;;;;;5096015;28;19970;-73
2024/03/30 02:48:09;;;;;;;;;;;8.40;89.90;;;;;;5092032;28;20480;-74
2024/03/30 02:50:42;;;;;;;;;;;8.40;89.80;;;;;;5088992;28;20331;-72
2024/03/30 02:53:14;;;;;;;;;;;8.40;89.90;;;;;;5092982;28;19938;-71
2024/03/30 02:55:48;;;;;;;;;;;8.40;89.70;;;;;;5092063;28;19928;-74
2024/03/30 02:58:21;;;;;;;;;;;8.40;89.70;;;;;;5093886;28;19928;-73
2024/03/30 03:00:53;;;;;;;;;;;8.40;89.60;;;;;;5090791;28;19969;-72
2024/03/30 03:03:53;;;;;;;;;;;8.40;89.70;;;;;;5094242;28;19936;-61
2024/03/30 03:06:26;;;;;;;;;;;8.40;89.70;;;;;;5080969;28;19932;-61
2024/03/30 03:08:58;;;;;;;;;;;8.40;89.60;;;;;;5096606;28;20041;-63
2024/03/30 03:11:32;;;;;;;;;;;8.40;89.60;;;;;;5094754;28;19981;-62
2024/03/30 03:14:05;;;;;;;;;;;8.40;89.60;;;;;;5088238;28;19927;-62
2024/03/30 03:16:37;;;;;;;;;;;8.40;89.60;;;;;;5085191;28;19924;-61
2024/03/30 03:19:10;;;;;;;;;;;8.30;89.50;;;;;;5095120;28;19931;-62
2024/03/30 03:21:43;;;;;;;;;;;8.30;89.50;;;;;;5085111;28;20534;-62
2024/03/30 03:24:15;;;;;;;;;;;8.30;89.50;;;;;;5096694;28;20328;-62
2024/03/30 03:26:49;;;;;;;;;;;8.30;89.50;;;;;;5077588;28;19938;-62
2024/03/30 03:29:22;;;;;;;;;;;8.30;89.50;;;;;;5093772;28;19958;-62
2024/03/30 03:31:55;;;;;;;;;;;8.30;89.60;;;;;;5084897;28;19976;-61
2024/03/30 03:34:26;;;;;;;;;;;8.30;89.50;;;;;;5091671;28;19928;-62
2024/03/30 03:36:59;;;;;;;;;;;8.30;89.50;;;;;;5092195;28;20718;-61
2024/03/30 03:39:32;;;;;;;;;;;8.30;89.50;;;;;;5093908;28;20034;-61
2024/03/30 03:42:06;;;;;;;;;;;8.30;89.50;;;;;;5091646;28;19934;-61
2024/03/30 03:44:39;;;;;;;;;;;8.30;89.40;;;;;;5100129;28;19928;-61
2024/03/30 03:47:12;;;;;;;;;;;8.30;89.40;;;;;;5099625;28;20018;-62
2024/03/30 03:49:45;;;;;;;;;;;8.20;89.40;;;;;;5099712;28;19931;-61
2024/03/30 03:52:18;;;;;;;;;;;8.20;89.40;;;;;;5094788;28;20390;-62
2024/03/30 03:54:50;;;;;;;;;;;8.20;89.30;;;;;;5098350;28;20329;-62
2024/03/30 03:57:30;;;;;;;;;;;8.10;89.30;;;;;;5093043;28;19935;-62
2024/03/30 04:00:03;;;;;;;;;;;8.10;89.20;;;;;;5095737;28;20022;-61
2024/03/30 04:02:39;;;;;;;;;;;8.10;89.20;;;;;;5095107;28;19927;-62
2024/03/30 04:05:18;;;;;;;;;;;8.00;89.20;;;;;;5099275;28;19928;-62
2024/03/30 04:07:52;;;;;;;;;;;8.10;89.10;;;;;;5096010;28;19962;-62
2024/03/30 04:10:24;;;;;;;;;;;8.10;89.20;;;;;;5097919;28;19973;-62
2024/03/30 04:12:59;;;;;;;;;;;8.00;89.10;;;;;;5096000;28;19966;-62
2024/03/30 04:15:32;;;;;;;;;;;8.10;89.10;;;;;;5092889;28;20291;-62
2024/03/30 04:18:06;;;;;;;;;;;8.10;89.20;;;;;;5097911;28;19924;-62
2024/03/30 04:20:38;;;;;;;;;;;8.10;89.20;;;;;;5097181;28;19934;-62
2024/03/30 04:23:11;;;;;;;;;;;8.10;89.20;;;;;;5094830;28;20366;-61
2024/03/30 04:25:43;;;;;;;;;;;8.10;89.20;;;;;;5097371;28;19928;-62
2024/03/30 04:28:17;;;;;;;;;;;8.00;89.20;;;;;;5098207;28;20296;-62
2024/03/30 04:30:43;;;;;;;;;;;8.00;89.20;;;;;;5088735;28;20363;-61
2024/03/30 04:33:16;;;;;;;;;;;8.00;89.30;;;;;;5097143;28;19928;-62
2024/03/30 04:35:51;;;;;;;;;;;8.00;89.40;;;;;;5098342;28;20405;-62
2024/03/30 04:38:25;;;;;;;;;;;8.10;89.40;;;;;;5094795;28;19935;-61
2024/03/30 04:41:06;;;;;;;;;;;8.10;89.30;;;;;;5095857;28;19946;-62
2024/03/30 04:43:41;;;;;;;;;;;8.10;89.30;;;;;;5093940;28;19932;-60
2024/03/30 04:46:14;;;;;;;;;;;8.10;89.20;;;;;;5091604;28;20416;-62
2024/03/30 04:48:48;;;;;;;;;;;8.10;89.30;;;;;;5095451;28;19963;-60
2024/03/30 04:51:21;;;;;;;;;;;8.00;89.10;;;;;;5095537;28;19928;-61
2024/03/30 04:53:54;;;;;;;;;;;8.00;89.20;;;;;;5098744;28;19974;-61
2024/03/30 04:56:26;;;;;;;;;;;8.00;89.20;;;;;;5094370;28;20015;-61
2024/03/30 04:59:00;;;;;;;;;;;7.90;89.20;;;;;;5096776;28;20301;-61
2024/03/30 05:01:33;;;;;;;;;;;7.90;89.20;;;;;;5093080;28;19985;-60
2024/03/30 05:04:07;;;;;;;;;;;7.90;89.10;;;;;;5093336;28;20330;-61
2024/03/30 05:06:39;;;;;;;;;;;7.90;89.10;;;;;;5094302;28;19928;-61
2024/03/30 05:09:12;;;;;;;;;;;7.90;89.10;;;;;;5093324;28;19924;-60
2024/03/30 05:11:37;;;;;;;;;;;7.80;89.10;;;;;;5096939;28;20502;-60
2024/03/30 05:14:12;;;;;;;;;;;7.90;89.10;;;;;;5097682;28;19924;-61
2024/03/30 05:16:45;;;;;;;;;;;7.90;89.10;;;;;;5093447;28;20734;-61
2024/03/30 05:22:05;;;;;;;;;;;7.80;89.20;;;;;;5088793;28;19955;-60
2024/03/30 05:24:37;;;;;;;;;;;7.80;89.10;;;;;;5091578;28;19939;-62
2024/03/30 05:27:11;;;;;;;;;;;7.90;89.20;;;;;;5096154;28;19939;-63
2024/03/30 05:29:45;;;;;;;;;;;7.90;89.10;;;;;;5096406;28;20067;-62
2024/03/30 05:32:18;;;;;;;;;;;7.90;89.10;;;;;;5091072;28;19923;-61
2024/03/30 05:34:51;;;;;;;;;;;7.90;89.20;;;;;;5096836;28;19923;-61
2024/03/30 05:37:23;;;;;;;;;;;8.00;89.20;;;;;;5091987;28;20383;-62
2024/03/30 05:39:56;;;;;;;;;;;8.00;89.20;;;;;;5091298;28;19928;-63
2024/03/30 05:42:28;;;;;;;;;;;8.00;89.20;;;;;;5095770;28;19927;-62
2024/03/30 05:45:02;;;;;;;;;;;8.00;89.20;;;;;;5092667;28;20019;-61
2024/03/30 05:47:35;;;;;;;;;;;8.00;89.20;;;;;;5084764;28;19973;-63
2024/03/30 05:50:08;;;;;;;;;;;8.10;89.20;;;;;;5093508;28;19977;-62
2024/03/30 05:52:40;;;;;;;;;;;8.10;89.30;;;;;;5092215;28;19928;-62
2024/03/30 05:55:13;;;;;;;;;;;8.10;89.40;;;;;;5093349;28;19982;-64
2024/03/30 05:57:45;;;;;;;;;;;8.20;89.30;;;;;;5095801;28;19924;-63
2024/03/30 06:00:20;;;;;;;;;;;8.20;89.30;;;;;;5091613;28;19967;-63
2024/03/30 06:02:53;;;;;;;;;;;8.20;89.40;;;;;;5091559;28;20035;-63
2024/03/30 06:05:26;;;;;;;;;;;8.20;89.50;;;;;;5086062;28;19934;-62
2024/03/30 06:07:59;;;;;;;;;;;8.20;89.30;;;;;;5092241;28;19924;-62
2024/03/30 06:10:32;;;;;;;;;;;8.30;89.40;;;;;;5094858;28;20387;-62
2024/03/30 06:13:04;;;;;;;;;;;8.30;89.30;;;;;;5092052;28;20019;-63
2024/03/30 06:15:38;;;;;;;;;;;8.30;89.30;;;;;;5091973;28;19924;-63
2024/03/30 06:18:11;;;;;;;;;;;8.30;89.30;;;;;;5092097;28;20313;-63
2024/03/30 06:20:44;;;;;;;;;;;8.30;89.20;;;;;;5089423;28;19963;-63
2024/03/30 06:23:16;;;;;;;;;;;8.40;89.20;;;;;;5091939;28;19934;-63
2024/03/30 06:25:49;;;;;;;;;;;8.40;89.10;;;;;;5096648;28;19923;-62
2024/03/30 06:28:21;;;;;;;;;;;8.40;88.90;;;;;;5091404;28;19935;-62
2024/03/30 06:30:55;;;;;;;;;;;8.40;89.00;;;;;;5090970;28;19928;-61
2024/03/30 06:33:21;;;;;;;;;;;8.40;88.90;;;;;;5092997;28;19962;-60
2024/03/30 06:35:54;;;;;;;;;;;8.50;88.70;;;;;;5091768;28;20334;-59
2024/03/30 06:38:26;;;;;;;;;;;8.60;89.10;;;;;;5089495;28;20325;-60
2024/03/30 06:43:49;;;;;;;;;;;8.90;89.50;;;;;;5095049;28;19932;-61
2024/03/30 06:46:23;;;;;;;;;;;8.90;89.00;;;;;;5090086;28;19935;-59
2024/03/30 06:48:57;;;;;;;;;;;9.00;89.60;;;;;;5092867;28;19924;-61
2024/03/30 06:51:30;;;;;;;;;;;9.10;89.70;;;;;;5092008;28;20398;-59
2024/03/30 06:54:03;;;;;;;;;;;9.20;89.80;;;;;;5097075;28;20031;-59
2024/03/30 06:56:35;;;;;;;;;;;9.20;89.50;;;;;;5091415;28;20022;-60
2024/03/30 06:59:08;;;;;;;;;;;9.30;89.90;;;;;;5094385;28;19928;-60
2024/03/30 07:01:41;;;;;;;;;;;9.40;90.00;;;;;;5095233;28;20035;-61
2024/03/30 07:04:15;;;;;;;;;;;9.50;90.10;;;;;;5090985;28;19924;-59
2024/03/30 07:06:48;;;;;;;;;;;9.60;90.20;;;;;;5093421;28;20014;-60
2024/03/30 07:09:20;;;;;;;;;;;9.60;90.30;;;;;;5097253;28;20328;-60
2024/03/30 07:11:53;;;;;;;;;;;9.60;90.40;;;;;;5085215;28;20263;-60
2024/03/30 07:14:25;;;;;;;;;;;9.60;90.60;;;;;;5093429;28;19924;-61
2024/03/30 07:17:01;;;;;;;;;;;9.70;90.50;;;;;;5091287;28;19936;-59
2024/03/30 07:19:33;;;;;;;;;;;9.60;90.50;;;;;;5096724;28;19924;-60
2024/03/30 07:22:06;;;;;;;;;;;9.60;90.60;;;;;;5099173;28;19956;-59
2024/03/30 07:24:38;;;;;;;;;;;9.70;90.70;;;;;;5094180;28;19927;-59
2024/03/30 07:27:11;;;;;;;;;;;9.70;90.60;;;;;;5097503;28;20375;-61
2024/03/30 07:29:43;;;;;;;;;;;9.70;90.60;;;;;;5099865;28;19924;-60
2024/03/30 07:32:17;;;;;;;;;;;9.80;90.80;;;;;;5095932;28;19935;-63
2024/03/30 07:34:50;;;;;;;;;;;9.90;90.80;;;;;;5100865;28;20010;-59
2024/03/30 07:37:24;;;;;;;;;;;9.90;90.70;;;;;;5098775;28;20022;-60
2024/03/30 07:39:56;;;;;;;;;;;10.00;90.80;;;;;;5098597;28;20014;-62
2024/03/30 07:42:30;;;;;;;;;;;10.00;90.70;;;;;;5093457;28;19925;-62
2024/03/30 07:45:02;;;;;;;;;;;10.10;90.70;;;;;;5098505;28;19932;-60
2024/03/30 07:47:38;;;;;;;;;;;10.20;90.80;;;;;;5096871;28;20393;-60
2024/03/30 07:50:10;;;;;;;;;;;10.30;90.90;;;;;;5098597;28;19924;-61
2024/03/30 07:52:44;;;;;;;;;;;10.40;90.80;;;;;;5092670;28;20389;-60
2024/03/30 07:55:17;;;;;;;;;;;10.50;90.70;;;;;;5095885;28;19962;-61
2024/03/30 07:57:49;;;;;;;;;;;10.50;90.20;;;;;;5098196;28;19932;-60
2024/03/30 08:00:28;;;;;;;;;;;10.60;90.00;;;;;;5097272;28;19924;-60
2024/03/30 08:03:02;;;;;;;;;;;10.70;89.80;;;;;;5097858;28;20011;-59
2024/03/30 08:05:38;;;;;;;;;;;10.90;89.30;;;;;;5098236;28;19935;-60
2024/03/30 08:08:10;;;;;;;;;;;11.00;89.60;;;;;;5096962;28;19928;-59
2024/03/30 08:10:36;;;;;;;;;;;11.10;89.30;;;;;;5098426;28;20371;-60
2024/03/30 08:13:09;;;;;;;;;;;11.20;88.80;;;;;;5099598;28;19924;-58
2024/03/30 08:15:43;;;;;;;;;;;11.30;88.40;;;;;;5093618;28;19927;-61
2024/03/30 08:18:16;;;;;;;;;;;11.40;88.30;;;;;;5094628;28;19928;-59
2024/03/30 08:20:43;;;;;;;;;;;11.40;88.00;;;;;;5093342;28;19930;-60
2024/03/30 08:23:15;;;;;;;;;;;11.40;87.70;;;;;;5094651;28;19999;-61
2024/03/30 08:25:49;;;;;;;;;;;11.50;87.40;;;;;;5093194;28;19985;-59
2024/03/30 08:28:21;;;;;;;;;;;11.60;87.40;;;;;;5094727;28;20011;-59
2024/03/30 08:30:54;;;;;;;;;;;11.60;87.40;;;;;;5092692;28;19927;-60
2024/03/30 08:33:27;;;;;;;;;;;11.60;86.90;;;;;;5096978;28;19927;-60
2024/03/30 08:36:01;;;;;;;;;;;11.70;86.60;;;;;;5098028;28;19958;-60
2024/03/30 08:38:33;;;;;;;;;;;11.70;86.50;;;;;;5093203;28;20369;-59
2024/03/30 08:41:06;;;;;;;;;;;11.80;86.20;;;;;;5098046;28;19977;-60
2024/03/30 08:43:39;;;;;;;;;;;11.80;86.40;;;;;;5098726;28;20458;-60
2024/03/30 08:46:12;;;;;;;;;;;11.80;86.10;;;;;;5082898;28;20012;-60
2024/03/30 08:48:45;;;;;;;;;;;11.90;86.30;;;;;;5095428;28;20002;-60
2024/03/30 08:51:19;;;;;;;;;;;11.90;86.00;;;;;;5094757;28;19935;-61
2024/03/30 08:53:57;;;;;;;;;;;11.90;85.90;;;;;;5093260;28;20005;-63
2024/03/30 08:56:31;;;;;;;;;;;11.90;85.60;;;;;;5087781;28;19939;-62
2024/03/30 08:59:04;;;;;;;;;;;11.90;85.50;;;;;;5096641;28;19970;-62
2024/03/30 09:01:38;;;;;;;;;;;11.90;85.50;;;;;;5094860;28;19928;-61
2024/03/30 09:04:11;;;;;;;;;;;11.90;85.40;;;;;;5098509;28;20383;-60
2024/03/30 09:06:45;;;;;;;;;;;12.00;85.40;;;;;;5099543;28;19923;-60
2024/03/30 09:09:17;;;;;;;;;;;12.00;85.10;;;;;;5097961;28;19954;-60
2024/03/30 09:11:43;;;;;;;;;;;12.10;84.60;;;;;;5098256;28;19923;-61
2024/03/30 09:14:16;;;;;;;;;;;12.10;84.40;;;;;;5094064;28;20019;-61
2024/03/30 09:16:49;;;;;;;;;;;12.10;84.40;;;;;;5096860;28;20386;-60
2024/03/30 09:19:23;;;;;;;;;;;12.10;84.20;;;;;;5095412;28;19927;-60
2024/03/30 09:21:56;;;;;;;;;;;12.10;84.30;;;;;;5097085;28;19928;-61
2024/03/30 09:24:28;;;;;;;;;;;12.10;84.20;;;;;;5094607;28;19932;-60
2024/03/30 09:27:07;;;;;;;;;;;12.20;84.10;;;;;;5095479;28;19928;-60
2024/03/30 09:29:40;;;;;;;;;;;12.20;83.90;;;;;;5097426;28;20019;-61
2024/03/30 09:32:13;;;;;;;;;;;12.20;83.80;;;;;;5055223;28;19928;-63
2024/03/30 09:34:46;;;;;;;;;;;12.30;83.80;;;;;;5087123;28;19928;-61
2024/03/30 09:37:20;;;;;;;;;;;12.30;83.80;;;;;;5090178;28;19924;-61
2024/03/30 09:39:52;;;;;;;;;;;12.30;83.70;;;;;;5095820;28;19923;-61
2024/03/30 09:42:28;;;;;;;;;;;12.30;83.60;;;;;;5094430;28;19935;-62
2024/03/30 09:45:02;;;;;;;;;;;12.30;83.60;;;;;;5097376;28;19969;-60
2024/03/30 09:47:37;;;;;;;;;;;12.40;83.40;;;;;;5098725;28;20042;-60
2024/03/30 09:50:12;;;;;;;;;;;12.40;83.50;;;;;;5093024;28;20015;-62
2024/03/30 09:52:47;;;;;;;;;;;12.40;83.60;;;;;;5096391;28;19928;-62
2024/03/30 09:55:19;;;;;;;;;;;12.40;83.70;;;;;;5095663;28;20289;-60
2024/03/30 09:57:53;;;;;;;;;;;12.40;83.70;;;;;;5096296;28;20015;-61
2024/03/30 10:00:26;;;;;;;;;;;12.40;83.90;;;;;;5097913;28;19924;-62
2024/03/30 10:02:59;;;;;;;;;;;12.40;84.20;;;;;;5098596;28;19934;-57
2024/03/30 10:05:36;;;;;;;;;;;12.40;84.30;;;;;;5096989;28;19924;-58
2024/03/30 10:08:14;;;;;;;;;;;12.40;84.10;;;;;;5096047;28;19934;-59
2024/03/30 10:10:47;;;;;;;;;;;12.40;84.10;;;;;;5095761;28;19928;-57
2024/03/30 10:13:26;;;;;;;;;;;12.40;84.20;;;;;;5097537;28;20427;-58
2024/03/30 10:15:59;;;;;;;;;;;12.40;84.20;;;;;;5094619;28;19925;-57
2024/03/30 10:18:32;;;;;;;;;;;12.40;84.20;;;;;;5091576;28;20410;-57
2024/03/30 10:21:05;;;;;;;;;;;12.40;84.20;;;;;;5094183;28;19983;-58
2024/03/30 10:23:39;;;;;;;;;;;12.50;84.10;;;;;;5097794;28;20297;-57
2024/03/30 10:26:12;;;;;;;;;;;12.50;84.30;;;;;;5094012;28;20349;-59
2024/03/30 10:28:46;;;;;;;;;;;12.50;84.10;;;;;;5098175;28;19993;-58
2024/03/30 10:31:18;;;;;;;;;;;12.50;84.20;;;;;;5096766;28;19924;-57
2024/03/30 10:33:47;;;;;;;;;;;12.50;84.20;;;;;;5091235;28;20009;-58
2024/03/30 10:36:21;;;;;;;;;;;12.60;84.20;;;;;;5093965;28;19928;-59
2024/03/30 10:39:00;;;;;;;;;;;12.60;84.30;;;;;;5097744;28;19977;-58
2024/03/30 10:41:33;;;;;;;;;;;12.60;84.40;;;;;;5097659;28;19927;-58
2024/03/30 10:44:06;;;;;;;;;;;12.60;84.50;;;;;;5092410;28;19971;-57
2024/03/30 10:46:39;;;;;;;;;;;12.60;84.50;;;;;;5094681;28;19963;-58
2024/03/30 10:49:12;;;;;;;;;;;12.60;84.40;;;;;;5098668;28;19927;-58
2024/03/30 10:51:47;;;;;;;;;;;12.60;84.30;;;;;;5084373;28;19943;-58
2024/03/30 10:54:20;;;;;;;;;;;12.60;84.30;;;;;;5091546;28;19932;-57
2024/03/30 10:56:52;;;;;;;;;;;12.60;84.20;;;;;;5100192;28;19932;-59
2024/03/30 10:59:25;;;;;;;;;;;12.60;84.30;;;;;;5097756;28;19932;-59
2024/03/30 11:01:58;;;;;;;;;;;12.70;84.30;;;;;;5092031;28;20011;-58
2024/03/30 11:04:31;;;;;;;;;;;12.70;84.30;;;;;;5100079;28;19963;-57
2024/03/30 11:07:04;;;;;;;;;;;12.70;84.40;;;;;;5079438;28;19928;-57
2024/03/30 11:09:41;;;;;;;;;;;12.70;84.40;;;;;;5098235;28;19935;-58
2024/03/30 11:12:14;;;;;;;;;;;12.70;84.20;;;;;;5101623;28;19928;-57
2024/03/30 11:14:41;;;;;;;;;;;12.70;84.30;;;;;;5101237;28;20022;-63
2024/03/30 11:17:17;;;;;;;;;;;12.70;84.20;;;;;;5096049;28;19924;-63
2024/03/30 11:19:54;;;;;;;;;;;12.80;84.10;;;;;;5101555;28;19932;-63
2024/03/30 11:22:34;;;;;;;;;;;12.80;84.20;;;;;;5096625;28;20389;-63
2024/03/30 11:25:09;;;;;;;;;;;12.90;84.20;;;;;;5099762;28;19932;-63
2024/03/30 11:31:22;;;;;;;;;;;13.10;83.80;;;;;;5091257;28;19955;-63
2024/03/30 11:33:58;;;;;;;;;;;13.10;83.70;;;;;;5098620;28;20326;-63
2024/03/30 11:36:35;;;;;;;;;;;13.20;83.50;;;;;;5098063;28;20015;-62
2024/03/30 11:39:15;;;;;;;;;;;13.30;83.20;;;;;;5099538;28;19928;-62
2024/03/30 11:41:51;;;;;;;;;;;13.40;83.00;;;;;;5095111;28;19924;-61
2024/03/30 11:44:24;;;;;;;;;;;13.60;82.80;;;;;;5097685;28;19923;-64
2024/03/30 11:46:58;;;;;;;;;;;13.70;82.60;;;;;;5098812;28;19928;-63
2024/03/30 11:49:31;;;;;;;;;;;13.80;82.30;;;;;;5099009;28;19935;-62
2024/03/30 11:52:04;;;;;;;;;;;13.90;82.00;;;;;;5099397;28;19967;-64
2024/03/30 11:54:37;;;;;;;;;;;14.10;81.80;;;;;;5100126;28;20011;-64
2024/03/30 11:57:12;;;;;;;;;;;14.10;81.70;;;;;;5099931;28;20386;-63
2024/03/30 11:59:38;;;;;;;;;;;14.20;81.50;;;;;;5096749;28;19935;-63
2024/03/30 12:02:12;;;;;;;;;;;14.20;81.50;;;;;;5097782;28;19931;-63
2024/03/30 12:04:46;;;;;;;;;;;14.30;81.60;;;;;;5097995;28;19924;-64
2024/03/30 12:07:14;;;;;;;;;;;14.30;81.60;;;;;;5100054;28;19990;-63
2024/03/30 12:09:49;;;;;;;;;;;14.40;81.60;;;;;;5086949;28;19974;-62
2024/03/30 12:12:23;;;;;;;;;;;14.40;81.60;;;;;;5095744;28;20410;-62
2024/03/30 12:14:56;;;;;;;;;;;14.40;81.60;;;;;;5096309;28;20461;-63
2024/03/30 12:17:29;;;;;;;;;;;14.40;81.50;;;;;;5094078;28;19958;-64
2024/03/30 12:20:03;;;;;;;;;;;14.50;81.40;;;;;;5098981;28;20458;-63
2024/03/30 12:22:37;;;;;;;;;;;14.50;81.50;;;;;;5095380;28;20394;-64
2024/03/30 12:25:10;;;;;;;;;;;14.60;81.30;;;;;;5092278;28;19924;-63
2024/03/30 12:27:44;;;;;;;;;;;14.60;81.20;;;;;;5099029;28;19924;-62
2024/03/30 12:30:17;;;;;;;;;;;14.60;81.00;;;;;;5094662;28;20528;-62
2024/03/30 12:32:44;;;;;;;;;;;14.60;80.50;;;;;;5099392;28;19977;-61
2024/03/30 12:35:16;;;;;;;;;;;14.60;80.20;;;;;;5096541;28;19928;-62
2024/03/30 12:37:50;;;;;;;;;;;14.60;80.10;;;;;;5093064;28;19981;-61
2024/03/30 12:40:24;;;;;;;;;;;14.60;80.20;;;;;;5094694;28;22450;-61
2024/03/30 12:43:12;;;;;;;;;;;14.60;80.00;;;;;;5091735;28;21589;-61
2024/03/30 12:45:50;;;;;;;;;;;14.60;79.90;;;;;;5088134;28;20022;-61
2024/03/30 12:48:24;;;;;;;;;;;14.60;79.80;;;;;;5090742;28;19980;-61
2024/03/30 12:50:57;;;;;;;;;;;14.60;80.00;;;;;;5086144;28;20358;-63
2024/03/30 12:53:31;;;;;;;;;;;14.60;80.00;;;;;;5089849;28;19934;-62
2024/03/30 12:56:04;;;;;;;;;;;14.60;80.10;;;;;;5095892;28;20310;-62
2024/03/30 12:58:38;;;;;;;;;;;14.60;80.20;;;;;;5099435;28;19966;-62
2024/03/30 13:01:10;;;;;;;;;;;14.60;80.20;;;;;;5096065;28;19923;-61
2024/03/30 13:03:43;;;;;;;;;;;14.60;80.30;;;;;;5098338;28;20375;-62
2024/03/30 13:06:15;;;;;;;;;;;14.60;80.40;;;;;;5096761;28;19930;-61
2024/03/30 13:08:51;;;;;;;;;;;14.60;80.50;;;;;;5097436;28;19932;-62
2024/03/30 13:11:24;;;;;;;;;;;14.60;80.50;;;;;;5097123;28;19930;-61
2024/03/30 13:13:58;;;;;;;;;;;14.60;80.50;;;;;;5097351;28;19928;-62
2024/03/30 13:16:30;;;;;;;;;;;14.60;80.80;;;;;;5096801;28;19924;-61
2024/03/30 13:19:08;;;;;;;;;;;14.60;80.90;;;;;;5098010;28;19924;-62
2024/03/30 13:21:41;;;;;;;;;;;14.60;80.80;;;;;;5097830;28;19974;-61
2024/03/30 13:24:15;;;;;;;;;;;14.60;80.80;;;;;;5098407;28;19928;-62
2024/03/30 13:26:48;;;;;;;;;;;14.60;81.30;;;;;;5096542;28;19934;-61
2024/03/30 13:29:22;;;;;;;;;;;14.70;81.20;;;;;;5097613;28;19931;-62
2024/03/30 13:32:14;;;;;;;;;;;14.70;81.20;;;;;;5097124;28;19967;-62
2024/03/30 13:34:47;;;;;;;;;;;14.70;81.20;;;;;;5097913;28;20199;-62
2024/03/30 13:37:20;;;;;;;;;;;14.70;81.30;;;;;;5097840;28;19931;-61
2024/03/30 13:39:53;;;;;;;;;;;14.70;81.40;;;;;;5097256;28;20462;-61
2024/03/30 13:42:26;;;;;;;;;;;14.70;81.70;;;;;;5098242;28;20405;-61
2024/03/30 13:45:00;;;;;;;;;;;14.70;82.00;;;;;;5093354;28;21184;-61
2024/03/30 13:47:32;;;;;;;;;;;14.70;82.20;;;;;;5088457;28;20061;-61
2024/03/30 13:50:06;;;;;;;;;;;14.60;82.10;;;;;;5088202;28;19928;-60
2024/03/30 13:52:38;;;;;;;;;;;14.60;82.30;;;;;;5092425;28;20773;-61
2024/03/30 13:55:11;;;;;;;;;;;14.60;82.40;;;;;;5096863;28;19923;-61
2024/03/30 13:57:44;;;;;;;;;;;14.60;82.30;;;;;;5098775;28;19924;-62
2024/03/30 14:00:18;;;;;;;;;;;14.60;82.50;;;;;;5095545;28;19930;-61
2024/03/30 14:02:50;;;;;;;;;;;14.60;82.70;;;;;;5096798;28;20014;-62
2024/03/30 14:05:23;;;;;;;;;;;14.60;82.70;;;;;;5097499;28;19967;-59
2024/03/30 14:07:55;;;;;;;;;;;14.60;82.50;;;;;;5097105;28;19924;-60
2024/03/30 14:10:28;;;;;;;;;;;14.60;82.40;;;;;;5093746;28;20015;-62
2024/03/30 14:13:01;;;;;;;;;;;14.50;82.40;;;;;;5097477;28;20338;-61
2024/03/30 14:15:35;;;;;;;;;;;14.50;82.60;;;;;;5097104;28;20393;-62
2024/03/30 14:18:07;;;;;;;;;;;14.50;82.40;;;;;;5095737;28;19951;-62
2024/03/30 14:20:40;;;;;;;;;;;14.50;82.80;;;;;;5095208;28;19935;-61
2024/03/30 14:23:12;;;;;;;;;;;14.50;83.00;;;;;;5095319;28;19959;-63
2024/03/30 14:25:46;;;;;;;;;;;14.50;83.30;;;;;;5097126;28;20429;-61
2024/03/30 14:28:20;;;;;;;;;;;14.50;83.30;;;;;;5083766;28;20006;-61
2024/03/30 14:30:54;;;;;;;;;;;14.40;83.60;;;;;;5081797;28;19928;-62
2024/03/30 14:33:26;;;;;;;;;;;14.40;83.90;;;;;;5094481;28;19931;-60
2024/03/30 14:35:59;;;;;;;;;;;14.40;83.90;;;;;;5096197;28;20306;-62
2024/03/30 14:38:31;;;;;;;;;;;14.40;83.80;;;;;;5095347;28;20333;-62
2024/03/30 14:41:11;;;;;;;;;;;14.30;83.70;;;;;;5095816;28;19928;-62
2024/03/30 14:43:44;;;;;;;;;;;14.40;84.10;;;;;;5095069;28;20415;-60
2024/03/30 14:46:19;;;;;;;;;;;14.30;84.20;;;;;;5090469;28;19928;-60
2024/03/30 14:48:51;;;;;;;;;;;14.30;84.40;;;;;;5087958;28;20401;-60
2024/03/30 14:51:24;;;;;;;;;;;14.30;84.60;;;;;;5093587;28;20345;-60
2024/03/30 14:53:56;;;;;;;;;;;14.20;84.80;;;;;;5093687;28;20276;-62
2024/03/30 14:56:29;;;;;;;;;;;14.20;85.40;;;;;;5094823;28;19928;-60
2024/03/30 14:59:02;;;;;;;;;;;14.10;85.30;;;;;;5095583;28;19931;-61
2024/03/30 15:01:36;;;;;;;;;;;14.10;85.80;;;;;;5094429;28;20438;-60
2024/03/30 15:04:09;;;;;;;;;;;14.10;86.10;;;;;;5095662;28;19967;-61
2024/03/30 15:06:42;;;;;;;;;;;14.10;86.60;;;;;;5094098;28;20371;-60
2024/03/30 15:09:14;;;;;;;;;;;14.00;86.70;;;;;;5093793;28;19930;-60